createdAt,value
2023-04-03T00:01:10.983Z,5.35
2023-04-03T00:03:42.902Z,7.20
2023-04-03T00:06:12.815Z,5.18
2023-04-03T00:08:40.454Z,6.38
2023-04-03T00:11:07.333Z,5.55
2023-04-03T00:13:34.221Z,7.20
2023-04-03T00:16:04.804Z,6.53
2023-04-03T00:18:35.152Z,5.60
2023-04-03T00:21:01.937Z,5.30
2023-04-03T00:23:31.328Z,5.90
2023-04-03T00:25:58.924Z,5.75
2023-04-03T00:28:27.896Z,5.22
2023-04-03T00:30:55.692Z,6.78
2023-04-03T00:33:26.540Z,6.43
2023-04-03T00:35:56.769Z,5.63
2023-04-03T00:38:23.461Z,3.50
2023-04-03T00:40:50.781Z,5.80
2023-04-03T00:43:27.520Z,6.07
2023-04-03T00:45:57.861Z,6.13
2023-04-03T00:48:29.412Z,7.43
2023-04-03T00:50:58.525Z,6.05
2023-04-03T00:53:33.577Z,4.85
2023-04-03T00:56:04.611Z,5.85
2023-04-03T00:59:05.191Z,8.30
2023-04-03T01:01:32.028Z,4.73
2023-04-03T01:04:04.290Z,5.43
2023-04-03T01:06:37.638Z,4.72
2023-04-03T01:09:04.813Z,4.90
2023-04-03T01:11:31.750Z,6.90
2023-04-03T01:14:02.765Z,4.90
2023-04-03T01:16:32.017Z,5.13
2023-04-03T01:18:59.314Z,6.97
2023-04-03T01:21:49.229Z,4.10
2023-04-03T01:24:39.615Z,5.05
2023-04-03T01:27:09.443Z,4.82
2023-04-03T01:29:38.349Z,5.75
2023-04-03T01:32:08.034Z,4.82
2023-04-03T01:34:34.716Z,5.50
2023-04-03T01:37:01.295Z,6.00
2023-04-03T01:39:30.347Z,5.35
2023-04-03T01:42:00.414Z,5.15
2023-04-03T01:44:29.804Z,8.15
2023-04-03T01:46:58.644Z,4.88
2023-04-03T01:49:25.338Z,4.38
2023-04-03T01:51:51.997Z,4.40
2023-04-03T01:57:01.587Z,4.82
2023-04-03T01:59:29.076Z,5.10
2023-04-03T02:02:00.483Z,4.78
2023-04-03T02:04:27.288Z,4.60
2023-04-03T02:06:56.224Z,3.95
2023-04-03T02:09:22.919Z,4.32
2023-04-03T02:11:51.957Z,4.75
2023-04-03T02:14:22.907Z,4.55
2023-04-03T02:16:54.239Z,7.13
2023-04-03T02:19:21.180Z,5.25
2023-04-03T02:21:47.980Z,4.65
2023-04-03T02:24:19.807Z,5.00
2023-04-03T02:26:46.497Z,4.85
2023-04-03T02:29:13.134Z,4.97
2023-04-03T02:31:39.805Z,5.22
2023-04-03T02:34:06.844Z,4.10
2023-04-03T02:36:33.507Z,4.60
2023-04-03T02:39:04.809Z,4.03
2023-04-03T02:41:36.142Z,4.50
2023-04-03T02:44:03.865Z,4.72
2023-04-03T02:46:33.506Z,5.15
2023-04-03T02:49:02.237Z,4.85
2023-04-03T02:51:28.959Z,4.05
2023-04-03T02:53:58.399Z,5.45
2023-04-03T02:56:27.882Z,4.93
2023-04-03T02:58:56.742Z,4.25
2023-04-03T03:01:28.218Z,4.35
2023-04-03T03:03:57.561Z,4.85
2023-04-03T03:06:26.658Z,4.07
2023-04-03T03:08:53.365Z,4.18
2023-04-03T03:11:22.170Z,4.55
2023-04-03T03:13:49.343Z,5.00
2023-04-03T03:16:18.358Z,4.38
2023-04-03T03:18:46.600Z,4.82
2023-04-03T03:21:15.891Z,4.75
2023-04-03T03:23:42.654Z,4.32
2023-04-03T03:26:12.187Z,5.07
2023-04-03T03:28:39.171Z,4.93
2023-04-03T03:31:08.563Z,4.55
2023-04-03T03:33:35.471Z,5.22
2023-04-03T03:36:04.340Z,5.60
2023-04-03T03:38:35.735Z,5.95
2023-04-03T03:41:02.463Z,5.00
2023-04-03T03:43:29.169Z,6.93
2023-04-03T03:45:58.103Z,4.90
2023-04-03T03:48:24.760Z,4.50
2023-04-03T03:50:51.423Z,7.38
2023-04-03T03:53:20.240Z,5.95
2023-04-03T03:55:47.348Z,5.25
2023-04-03T03:58:13.986Z,5.75
2023-04-03T04:00:40.665Z,5.35
2023-04-03T04:03:09.582Z,5.32
2023-04-03T04:05:38.842Z,5.47
2023-04-03T04:08:06.026Z,7.10
2023-04-03T04:10:34.882Z,5.70
2023-04-03T04:13:06.526Z,5.32
2023-04-03T04:15:35.701Z,5.38
2023-04-03T04:18:05.180Z,5.68
2023-04-03T04:20:31.887Z,5.95
2023-04-03T04:22:59.324Z,6.85
2023-04-03T04:25:35.964Z,6.60
2023-04-03T04:28:09.359Z,6.32
2023-04-03T04:30:38.642Z,5.95
2023-04-03T04:33:09.898Z,5.50
2023-04-03T04:38:09.842Z,6.32
2023-04-03T04:40:41.452Z,7.95
2023-04-03T04:43:11.782Z,6.55
2023-04-03T04:45:43.186Z,7.30
2023-04-03T04:48:13.370Z,6.43
2023-04-03T04:50:42.233Z,8.88
2023-04-03T04:53:11.914Z,6.53
2023-04-03T04:55:40.862Z,8.07
2023-04-03T04:58:09.663Z,7.22
2023-04-03T05:00:38.776Z,7.20
2023-04-03T05:03:07.641Z,6.55
2023-04-03T05:05:36.753Z,6.05
2023-04-03T05:08:09.375Z,5.90
2023-04-03T05:10:36.113Z,7.38
2023-04-03T05:13:03.044Z,5.95
2023-04-03T05:15:32.639Z,6.25
2023-04-03T05:17:59.407Z,8.25
2023-04-03T05:20:28.590Z,7.00
2023-04-03T05:23:00.747Z,6.57
2023-04-03T05:25:32.850Z,5.57
2023-04-03T05:27:59.624Z,7.38
2023-04-03T05:30:28.945Z,7.93
2023-04-03T05:33:00.276Z,7.25
2023-04-03T05:35:26.942Z,6.40
2023-04-03T05:37:59.316Z,7.85
2023-04-03T05:40:28.268Z,7.43
2023-04-03T05:42:57.272Z,7.63
2023-04-03T05:45:26.184Z,9.27
2023-04-03T05:47:55.224Z,7.93
2023-04-03T05:50:24.561Z,8.68
2023-04-03T05:52:53.964Z,9.35
2023-04-03T05:55:22.769Z,9.60
2023-04-03T05:57:49.499Z,8.40
2023-04-03T06:00:16.728Z,7.82
2023-04-03T06:02:48.974Z,11.68
2023-04-03T06:05:18.398Z,8.73
2023-04-03T06:07:45.786Z,13.65
2023-04-03T06:10:16.004Z,20.65
2023-04-03T06:12:44.986Z,19.25
2023-04-03T06:15:12.949Z,22.15
2023-04-03T06:17:44.440Z,19.63
2023-04-03T06:20:14.457Z,19.60
2023-04-03T06:22:43.212Z,23.27
2023-04-03T06:25:14.619Z,18.80
2023-04-03T06:27:45.985Z,19.33
2023-04-03T06:32:47.467Z,18.85
2023-04-03T06:35:19.566Z,21.67
2023-04-03T06:37:48.592Z,17.80
2023-04-03T06:40:19.807Z,20.83
2023-04-03T06:42:49.766Z,26.48
2023-04-03T06:45:21.281Z,22.23
2023-04-03T06:47:48.062Z,23.67
2023-04-03T06:50:17.934Z,28.88
2023-04-03T06:55:36.298Z,29.00
2023-04-03T06:58:06.040Z,22.00
2023-04-03T07:03:11.113Z,197.38
2023-04-03T07:05:45.502Z,28.70
2023-04-03T07:10:49.930Z,33.30
2023-04-03T07:13:18.981Z,25.20
2023-04-03T07:15:50.897Z,25.10
2023-04-03T07:18:34.856Z,25.10
2023-04-03T07:21:11.394Z,23.30
2023-04-03T07:23:43.282Z,21.27
2023-04-03T07:26:14.938Z,21.30
2023-04-03T07:31:21.823Z,21.38
2023-04-03T07:33:48.504Z,22.27
2023-04-03T07:36:17.801Z,17.88
2023-04-03T07:38:46.694Z,19.42
2023-04-03T07:41:18.615Z,18.85
2023-04-03T07:43:50.695Z,22.77
2023-04-03T07:46:22.297Z,20.85
2023-04-03T07:48:49.100Z,18.58
2023-04-03T07:51:21.779Z,21.63
2023-04-03T07:53:51.504Z,18.30
2023-04-03T07:56:21.876Z,19.38
2023-04-03T07:58:48.561Z,17.75
2023-04-03T08:01:15.301Z,20.10
2023-04-03T08:03:44.439Z,19.08
2023-04-03T08:06:16.987Z,18.73
2023-04-03T08:08:48.319Z,19.05
2023-04-03T08:11:19.164Z,16.30
2023-04-03T08:13:49.948Z,13.40
2023-04-03T08:16:22.373Z,16.02
2023-04-03T08:21:33.099Z,19.33
2023-04-03T08:24:02.735Z,14.20
2023-04-03T08:26:40.576Z,17.73
2023-04-03T08:29:07.544Z,15.30
2023-04-03T08:31:40.166Z,17.23
2023-04-03T08:34:08.631Z,18.15
2023-04-03T08:36:35.489Z,15.77
2023-04-03T08:39:05.145Z,16.60
2023-04-03T08:41:45.848Z,18.83
2023-04-03T08:44:23.536Z,17.87
2023-04-03T08:47:26.266Z,17.10
2023-04-03T08:50:00.606Z,13.32
2023-04-03T08:52:43.131Z,15.65
2023-04-03T08:55:28.971Z,15.80
2023-04-03T08:58:20.477Z,17.95
2023-04-03T09:03:26.706Z,15.35
2023-04-03T09:06:12.501Z,15.48
2023-04-03T09:09:13.053Z,17.00
2023-04-03T09:12:11.515Z,16.80
2023-04-03T09:17:40.516Z,15.00
2023-04-03T09:20:46.035Z,19.98
2023-04-03T09:23:19.292Z,15.68
2023-04-03T09:25:48.217Z,14.45
2023-04-03T09:28:17.188Z,14.90
2023-04-03T09:30:46.198Z,19.33
2023-04-03T09:33:12.902Z,16.20
2023-04-03T09:35:48.182Z,14.63
2023-04-03T09:38:23.248Z,17.33
2023-04-03T09:40:54.126Z,14.52
2023-04-03T09:43:33.839Z,16.77
2023-04-03T09:46:40.681Z,14.10
2023-04-03T09:49:12.773Z,17.15
2023-04-03T09:51:41.839Z,15.15
2023-04-03T09:54:31.670Z,15.85
2023-04-03T09:57:00.596Z,16.10
2023-04-03T09:59:31.999Z,17.17
2023-04-03T10:02:03.990Z,12.52
2023-04-03T10:05:06.202Z,15.23
2023-04-03T10:07:44.402Z,16.05
2023-04-03T10:10:16.079Z,17.02
2023-04-03T10:12:45.885Z,22.75
2023-04-03T10:15:21.111Z,18.33
2023-04-03T10:17:57.019Z,20.92
2023-04-03T10:20:43.789Z,21.45
2023-04-03T10:23:21.047Z,20.40
2023-04-03T10:26:25.401Z,26.30
2023-04-03T10:29:11.086Z,21.42
2023-04-03T10:31:59.148Z,20.15
2023-04-03T10:35:02.374Z,20.75
2023-04-03T10:37:38.461Z,25.17
2023-04-03T10:40:27.155Z,21.33
2023-04-03T10:43:26.851Z,21.67
2023-04-03T10:46:16.227Z,18.23
2023-04-03T10:49:01.979Z,21.13
2023-04-03T10:51:41.427Z,20.23
2023-04-03T10:54:17.198Z,20.42
2023-04-03T10:57:04.460Z,22.63
2023-04-03T10:59:47.812Z,15.75
2023-04-03T11:02:30.236Z,20.23
2023-04-03T11:05:27.629Z,15.60
2023-04-03T11:07:54.477Z,10.43
2023-04-03T11:10:39.993Z,12.13
2023-04-03T11:13:14.147Z,7.70
2023-04-03T11:15:44.678Z,9.55
2023-04-03T11:18:17.161Z,9.87
2023-04-03T11:20:48.458Z,11.85
2023-04-03T11:23:46.045Z,9.93
2023-04-03T11:26:25.991Z,9.80
2023-04-03T11:31:46.027Z,10.77
2023-04-03T11:34:20.384Z,10.48
2023-04-03T11:36:48.590Z,7.93
2023-04-03T11:39:25.151Z,8.63
2023-04-03T11:42:10.699Z,7.07
2023-04-03T11:44:40.595Z,9.95
2023-04-03T11:49:52.110Z,10.68
2023-04-03T11:52:43.758Z,14.07
2023-04-03T11:55:31.492Z,9.00
2023-04-03T11:58:04.116Z,8.75
2023-04-03T12:00:56.132Z,6.70
2023-04-03T12:03:30.072Z,8.32
2023-04-03T12:06:06.738Z,6.85
2023-04-03T12:08:48.407Z,6.93
2023-04-03T12:11:17.756Z,8.38
2023-04-03T12:13:51.172Z,8.68
2023-04-03T12:16:47.020Z,11.77
2023-04-03T12:19:42.391Z,9.90
2023-04-03T12:22:13.935Z,10.82
2023-04-03T12:24:47.970Z,10.10
2023-04-03T12:27:35.268Z,11.93
2023-04-03T12:30:05.072Z,8.02
2023-04-03T12:32:41.466Z,6.60
2023-04-03T12:35:37.435Z,7.78
2023-04-03T12:38:31.084Z,9.23
2023-04-03T12:41:19.266Z,7.85
2023-04-03T12:43:57.117Z,6.43
2023-04-03T12:46:32.098Z,7.30
2023-04-03T12:49:01.492Z,7.55
2023-04-03T12:51:42.278Z,7.70
2023-04-03T12:54:27.684Z,9.87
2023-04-03T12:57:28.737Z,7.15
2023-04-03T12:59:58.518Z,7.63
2023-04-03T13:02:28.760Z,6.82
2023-04-03T13:05:07.493Z,7.72
2023-04-03T13:07:35.964Z,10.38
2023-04-03T13:10:22.930Z,7.03
2023-04-03T13:12:53.468Z,6.07
2023-04-03T13:15:24.525Z,6.70
2023-04-03T13:17:53.497Z,5.40
2023-04-03T13:20:37.101Z,6.05
2023-04-03T13:23:07.382Z,6.35
2023-04-03T13:25:37.627Z,5.38
2023-04-03T13:28:13.183Z,6.18
2023-04-03T13:30:41.555Z,7.03
2023-04-03T13:33:24.001Z,8.75
2023-04-03T13:36:06.129Z,6.47
2023-04-03T13:38:34.771Z,8.20
2023-04-03T13:43:41.946Z,4.85
2023-04-03T13:46:12.009Z,6.72
2023-04-03T13:48:41.092Z,5.28
2023-04-03T13:51:16.955Z,5.60
2023-04-03T13:53:46.368Z,11.13
2023-04-03T13:56:24.602Z,6.35
2023-04-03T13:59:02.219Z,6.38
2023-04-03T14:01:39.830Z,5.30
2023-04-03T14:04:45.261Z,7.45
2023-04-03T14:07:17.883Z,6.15
2023-04-03T14:09:47.174Z,5.97
2023-04-03T14:12:38.216Z,5.20
2023-04-03T14:15:06.975Z,53.08
2023-04-03T14:17:34.573Z,8.65
2023-04-03T14:20:02.656Z,6.18
2023-04-03T14:22:31.532Z,8.98
2023-04-03T14:25:03.076Z,5.95
2023-04-03T14:27:39.062Z,8.55
2023-04-03T14:30:10.673Z,8.20
2023-04-03T14:32:39.869Z,8.55
2023-04-03T14:35:08.309Z,7.82
2023-04-03T14:37:40.252Z,8.23
2023-04-03T14:40:09.288Z,7.35
2023-04-03T14:42:42.195Z,7.20
2023-04-03T14:45:11.262Z,5.55
2023-04-03T14:47:47.848Z,5.88
2023-04-03T14:50:24.977Z,6.03
2023-04-03T14:52:57.405Z,5.88
2023-04-03T14:55:26.364Z,6.28
2023-04-03T14:57:53.492Z,5.30
2023-04-03T15:00:23.556Z,6.07
2023-04-03T15:02:52.523Z,7.18
2023-04-03T15:05:25.006Z,5.38
2023-04-03T15:07:56.349Z,5.63
2023-04-03T15:10:30.449Z,5.03
2023-04-03T15:13:01.921Z,7.57
2023-04-03T15:15:31.947Z,5.57
2023-04-03T15:17:59.287Z,5.30
2023-04-03T15:20:27.441Z,4.50
2023-04-03T15:22:54.422Z,6.20
2023-04-03T15:25:21.190Z,6.65
2023-04-03T15:27:50.191Z,4.32
2023-04-03T15:30:19.691Z,4.82
2023-04-03T15:32:48.837Z,5.93
2023-04-03T15:35:20.296Z,5.00
2023-04-03T15:37:49.283Z,4.25
2023-04-03T15:40:18.574Z,4.47
2023-04-03T15:42:51.327Z,4.60
2023-04-03T15:45:25.044Z,4.03
2023-04-03T15:47:54.167Z,4.57
2023-04-03T15:50:25.022Z,4.57
2023-04-03T15:52:55.378Z,6.45
2023-04-03T15:55:25.991Z,4.77
2023-04-03T15:57:53.484Z,4.27
2023-04-03T16:00:21.288Z,8.02
2023-04-03T16:02:48.323Z,4.38
2023-04-03T16:05:18.353Z,3.97
2023-04-03T16:07:49.737Z,3.92
2023-04-03T16:10:22.204Z,4.57
2023-04-03T16:12:48.988Z,3.78
2023-04-03T16:15:18.096Z,4.10
2023-04-03T16:17:49.606Z,5.15
2023-04-03T16:20:22.617Z,5.45
2023-04-03T16:22:52.208Z,5.38
2023-04-03T16:25:22.074Z,4.82
2023-04-03T16:27:48.988Z,4.72
2023-04-03T16:30:17.890Z,4.88
2023-04-03T16:32:45.068Z,4.65
2023-04-03T16:35:12.020Z,3.67
2023-04-03T16:37:39.917Z,4.13
2023-04-03T16:40:07.793Z,4.28
2023-04-03T16:42:39.198Z,5.75
2023-04-03T16:45:10.191Z,3.75
2023-04-03T16:47:43.037Z,4.50
2023-04-03T16:50:10.031Z,3.58
2023-04-03T16:52:39.243Z,4.43
2023-04-03T16:55:07.593Z,6.57
2023-04-03T16:57:36.454Z,3.60
2023-04-03T17:00:09.371Z,4.07
2023-04-03T17:02:36.279Z,3.47
2023-04-03T17:05:03.156Z,3.45
2023-04-03T17:07:29.878Z,3.20
2023-04-03T17:10:01.197Z,4.30
2023-04-03T17:12:30.617Z,3.85
2023-04-03T17:15:01.981Z,4.80
2023-04-03T17:17:31.820Z,6.65
2023-04-03T17:19:58.681Z,7.50
2023-04-03T17:22:27.560Z,10.57
2023-04-03T17:24:59.128Z,8.55
2023-04-03T17:27:28.469Z,10.98
2023-04-03T17:29:57.331Z,14.63
2023-04-03T17:32:26.494Z,22.20
2023-04-03T17:34:56.325Z,18.92
2023-04-03T17:37:25.174Z,18.85
2023-04-03T17:39:56.608Z,21.63
2023-04-03T17:42:23.320Z,20.60
2023-04-03T17:44:52.193Z,18.92
2023-04-03T17:47:19.346Z,14.18
2023-04-03T17:49:48.218Z,11.88
2023-04-03T17:52:14.919Z,11.07
2023-04-03T17:54:43.828Z,11.35
2023-04-03T17:57:12.933Z,10.35
2023-04-03T17:59:41.768Z,11.52
2023-04-03T18:02:10.602Z,13.88
2023-04-03T18:04:39.841Z,14.10
2023-04-03T18:07:10.175Z,15.00
2023-04-03T18:09:39.611Z,11.97
2023-04-03T18:12:09.416Z,9.98
2023-04-03T18:14:36.502Z,9.93
2023-04-03T18:17:05.932Z,12.52
2023-04-03T18:19:32.867Z,27.83
2023-04-03T18:22:05.330Z,48.78
2023-04-03T18:24:34.865Z,69.55
2023-04-03T18:27:14.548Z,83.57
2023-04-03T18:29:45.390Z,85.43
2023-04-03T18:32:13.530Z,86.90
2023-04-03T18:34:40.402Z,83.80
2023-04-03T18:37:12.621Z,81.80
2023-04-03T18:39:41.464Z,89.75
2023-04-03T18:42:22.262Z,80.80
2023-04-03T18:44:53.727Z,85.35
2023-04-03T18:47:25.108Z,79.22
2023-04-03T18:49:51.755Z,80.60
2023-04-03T18:52:19.022Z,81.00
2023-04-03T18:54:48.009Z,76.47
2023-04-03T18:57:16.973Z,74.75
2023-04-03T18:59:43.860Z,75.10
2023-04-03T19:02:11.165Z,69.00
2023-04-03T19:04:40.019Z,70.13
2023-04-03T19:07:12.116Z,69.07
2023-04-03T19:09:39.579Z,68.82
2023-04-03T19:12:09.395Z,67.28
2023-04-03T19:14:36.057Z,68.03
2023-04-03T19:17:04.170Z,62.45
2023-04-03T19:19:36.186Z,64.72
2023-04-03T19:22:05.042Z,64.85
2023-04-03T19:24:33.980Z,63.08
2023-04-03T19:27:04.374Z,63.20
2023-04-03T19:29:31.079Z,65.30
2023-04-03T19:31:57.768Z,56.75
2023-04-03T19:34:26.682Z,55.65
2023-04-03T19:36:55.817Z,53.25
2023-04-03T19:39:24.657Z,51.15
2023-04-03T19:41:53.949Z,52.60
2023-04-03T19:44:20.760Z,50.63
2023-04-03T19:46:51.053Z,50.50
2023-04-03T19:49:18.902Z,46.13
2023-04-03T19:51:53.679Z,44.05
2023-04-03T19:54:20.967Z,46.20
2023-04-03T19:56:49.825Z,38.55
2023-04-03T19:59:18.724Z,39.55
2023-04-03T20:01:48.168Z,39.50
2023-04-03T20:04:20.016Z,38.97
2023-04-03T20:06:46.806Z,37.33
2023-04-03T20:09:13.485Z,35.63
2023-04-03T20:11:43.086Z,36.78
2023-04-03T20:14:12.403Z,38.00
2023-04-03T20:16:43.748Z,35.05
2023-04-03T20:19:13.570Z,34.38
2023-04-03T20:21:40.462Z,34.63
2023-04-03T20:24:12.059Z,34.08
2023-04-03T20:26:43.896Z,32.47
2023-04-03T20:29:10.511Z,30.95
2023-04-03T20:31:41.887Z,28.08
2023-04-03T20:34:09.286Z,30.58
2023-04-03T20:36:38.758Z,30.67
2023-04-03T20:39:07.784Z,29.15
2023-04-03T20:41:37.265Z,30.67
2023-04-03T20:44:04.596Z,30.13
2023-04-03T20:46:51.190Z,29.25
2023-04-03T20:49:19.351Z,32.13
2023-04-03T20:51:49.055Z,29.67
2023-04-03T20:54:18.492Z,28.90
2023-04-03T20:56:50.029Z,30.50
2023-04-03T20:59:17.116Z,28.67
2023-04-03T21:01:45.922Z,28.23
2023-04-03T21:04:15.902Z,28.55
2023-04-03T21:07:20.118Z,26.65
2023-04-03T21:10:24.704Z,26.75
2023-04-03T21:13:29.207Z,28.27
2023-04-03T21:15:56.071Z,26.80
2023-04-03T21:18:35.507Z,25.88
2023-04-03T21:21:02.919Z,24.13
2023-04-03T21:23:30.585Z,24.90
2023-04-03T21:25:58.110Z,24.83
2023-04-03T21:28:25.162Z,25.50
2023-04-03T21:30:59.515Z,23.20
2023-04-03T21:33:28.705Z,23.13
2023-04-03T21:35:58.687Z,25.95
2023-04-03T21:38:32.366Z,24.30
2023-04-03T21:41:02.244Z,22.75
2023-04-03T21:43:33.914Z,20.08
2023-04-03T21:46:02.939Z,20.88
2023-04-03T21:48:32.804Z,22.52
2023-04-03T21:51:08.147Z,20.33
2023-04-03T21:53:35.592Z,19.60
2023-04-03T21:56:06.874Z,19.95
2023-04-03T22:01:11.893Z,21.90
2023-04-03T22:03:41.718Z,25.35
2023-04-03T22:06:34.206Z,23.05
2023-04-03T22:09:03.309Z,22.90
2023-04-03T22:11:32.343Z,27.80
2023-04-03T22:14:01.204Z,26.38
2023-04-03T22:16:28.109Z,30.35
2023-04-03T22:18:56.939Z,7.55
2023-04-03T22:21:27.201Z,9.13
2023-04-03T22:23:54.740Z,21.57
2023-04-03T22:26:23.720Z,20.48
2023-04-03T22:28:50.435Z,17.48
2023-04-03T22:31:20.666Z,17.60
2023-04-03T22:33:49.491Z,18.67
2023-04-03T22:36:16.430Z,19.27
2023-04-03T22:38:47.298Z,22.02
2023-04-03T22:41:13.963Z,18.77
2023-04-03T22:43:43.299Z,18.95
2023-04-03T22:46:12.096Z,20.88
2023-04-03T22:48:41.103Z,19.67
2023-04-03T22:51:08.522Z,19.67
2023-04-03T22:53:38.641Z,22.15
2023-04-03T22:56:12.012Z,19.35
2023-04-03T22:58:42.653Z,18.95
2023-04-03T23:01:13.177Z,16.60
2023-04-03T23:03:43.253Z,21.80
2023-04-03T23:06:13.045Z,17.67
2023-04-03T23:08:42.032Z,19.20
2023-04-03T23:11:11.513Z,21.98
2023-04-03T23:13:38.396Z,18.05
2023-04-03T23:16:05.422Z,19.45
2023-04-03T23:18:32.933Z,17.40
2023-04-03T23:21:00.109Z,18.65
2023-04-03T23:23:32.069Z,19.90
2023-04-03T23:26:04.697Z,18.42
2023-04-03T23:28:31.517Z,17.65
2023-04-03T23:31:02.455Z,16.75
2023-04-03T23:33:30.710Z,19.55
2023-04-03T23:35:59.822Z,16.58
2023-04-03T23:38:29.626Z,15.88
2023-04-03T23:40:58.560Z,18.73
2023-04-03T23:43:32.480Z,15.25
2023-04-03T23:46:05.307Z,18.90
2023-04-03T23:48:37.082Z,16.52
2023-04-03T23:51:06.155Z,15.57
2023-04-03T23:53:32.765Z,14.40
2023-04-03T23:56:01.703Z,12.48
2023-04-03T23:58:30.459Z,14.02
